Time;durP1;ratioP1;P1;durP2;ratioP2;P2;SDS_P1;SDS_P2;PMS_P1;PMS_P2;Temp;Humidity;BMP_temperature;BMP_pressure;BME280_temperature;BME280_humidity;BME280_pressure;Samples;Min_cycle;Max_cycle;Signal;HPM_P1;HPM_P2
2022/06/10 00:00:16;;;;;;;3.17;2.67;;;;;;;;;;5065142;28;20516;-77
2022/06/10 00:02:44;;;;;;;2.43;2.23;;;;;;;;;;5060745;28;20449;-79
2022/06/10 00:05:13;;;;;;;3.73;2.13;;;;;;;;;;5052304;28;20483;-78
2022/06/10 00:07:40;;;;;;;3.93;2.30;;;;;;;;;;5051164;28;20442;-78
2022/06/10 00:10:08;;;;;;;2.90;2.40;;;;;;;;;;5052101;28;20474;-78
2022/06/10 00:12:35;;;;;;;4.00;3.00;;;;;;;;;;5051947;28;20499;-78
2022/06/10 00:15:02;;;;;;;2.57;2.37;;;;;;;;;;5051854;28;20523;-78
2022/06/10 00:17:31;;;;;;;2.90;2.60;;;;;;;;;;5052795;28;20492;-78
2022/06/10 00:19:58;;;;;;;4.13;2.37;;;;;;;;;;5052023;28;20980;-78
2022/06/10 00:22:25;;;;;;;2.30;2.20;;;;;;;;;;5052063;28;20507;-78
2022/06/10 00:24:52;;;;;;;2.90;2.70;;;;;;;;;;5052096;28;20445;-77
2022/06/10 00:27:19;;;;;;;3.90;2.57;;;;;;;;;;5052043;28;20442;-78
2022/06/10 00:29:47;;;;;;;2.53;2.33;;;;;;;;;;5050872;28;20457;-79
2022/06/10 00:32:14;;;;;;;2.73;2.40;;;;;;;;;;5050870;28;20442;-78
2022/06/10 00:34:43;;;;;;;3.73;2.67;;;;;;;;;;5050497;28;20477;-77
2022/06/10 00:37:10;;;;;;;2.93;2.73;;;;;;;;;;5050433;28;20441;-78
2022/06/10 00:39:37;;;;;;;2.77;2.30;;;;;;;;;;5050637;28;20461;-77
2022/06/10 00:42:06;;;;;;;3.33;2.87;;;;;;;;;;5050793;28;20663;-78
2022/06/10 00:44:36;;;;;;;3.13;2.30;;;;;;;;;;5050140;28;20476;-78
2022/06/10 00:47:03;;;;;;;2.57;2.43;;;;;;;;;;5052126;28;20954;-79
2022/06/10 00:49:31;;;;;;;2.33;2.23;;;;;;;;;;5051469;28;20881;-77
2022/06/10 00:52:00;;;;;;;2.93;2.70;;;;;;;;;;5055718;28;20879;-77
2022/06/10 00:54:28;;;;;;;2.57;2.37;;;;;;;;;;5054975;28;20535;-78
2022/06/10 00:56:59;;;;;;;4.70;2.87;;;;;;;;;;5052571;28;20445;-77
2022/06/10 00:59:29;;;;;;;5.30;2.67;;;;;;;;;;5050825;28;20523;-78
2022/06/10 01:01:58;;;;;;;4.20;2.83;;;;;;;;;;5050533;28;20444;-78
2022/06/10 01:04:26;;;;;;;2.80;2.60;;;;;;;;;;5049947;28;20437;-78
2022/06/10 01:06:53;;;;;;;2.50;2.30;;;;;;;;;;5050109;28;20437;-77
2022/06/10 01:09:21;;;;;;;3.80;2.70;;;;;;;;;;5050120;28;20465;-78
2022/06/10 01:12:12;;;;;;;3.37;2.50;;;;;;;;;;5049883;28;20963;-78
2022/06/10 01:14:46;;;;;;;31.53;28.20;;;;;;;;;;5049837;28;20480;-78
2022/06/10 01:17:16;;;;;;;11.00;9.90;;;;;;;;;;5050333;28;20441;-79
2022/06/10 01:20:01;;;;;;;4.67;4.13;;;;;;;;;;5052860;28;20471;-78
2022/06/10 01:22:41;;;;;;;3.20;3.00;;;;;;;;;;5053546;28;20508;-78
2022/06/10 01:25:18;;;;;;;3.00;2.80;;;;;;;;;;5053662;28;20433;-78
2022/06/10 01:28:00;;;;;;;3.40;3.00;;;;;;;;;;5052960;28;20449;-77
2022/06/10 01:30:41;;;;;;;2.53;2.33;;;;;;;;;;5053733;28;20457;-78
2022/06/10 01:33:14;;;;;;;5.20;2.73;;;;;;;;;;5053051;28;20441;-77
2022/06/10 01:35:44;;;;;;;3.77;3.30;;;;;;;;;;5053476;28;20631;-78
2022/06/10 01:38:14;;;;;;;3.13;2.93;;;;;;;;;;5053137;28;20449;-78
2022/06/10 01:40:44;;;;;;;4.27;3.23;;;;;;;;;;5052920;28;20461;-78
2022/06/10 01:43:16;;;;;;;4.13;3.77;;;;;;;;;;5052906;28;20811;-78
2022/06/10 01:45:49;;;;;;;3.40;3.10;;;;;;;;;;5052800;28;20556;-77
2022/06/10 01:48:19;;;;;;;4.40;2.90;;;;;;;;;;5052971;28;20450;-78
2022/06/10 01:50:49;;;;;;;5.03;3.47;;;;;;;;;;5052994;28;20872;-77
2022/06/10 01:53:29;;;;;;;4.50;3.70;;;;;;;;;;5052621;28;20461;-78
2022/06/10 01:56:01;;;;;;;4.40;3.27;;;;;;;;;;5053036;28;20485;-77
2022/06/10 01:58:30;;;;;;;3.37;3.07;;;;;;;;;;5052607;28;20963;-79
2022/06/10 02:01:01;;;;;;;5.57;3.70;;;;;;;;;;5052453;28;20493;-77
2022/06/10 02:03:31;;;;;;;3.33;3.03;;;;;;;;;;5051978;28;20856;-79
2022/06/10 02:06:00;;;;;;;5.73;3.23;;;;;;;;;;5052831;28;20477;-78
2022/06/10 02:08:30;;;;;;;7.73;3.37;;;;;;;;;;5052303;28;20468;-78
2022/06/10 02:11:00;;;;;;;5.93;3.40;;;;;;;;;;5052329;28;20465;-78
2022/06/10 02:13:30;;;;;;;3.73;3.43;;;;;;;;;;5051973;28;20952;-78
2022/06/10 02:16:01;;;;;;;4.60;3.43;;;;;;;;;;5052007;28;20477;-78
2022/06/10 02:18:31;;;;;;;3.80;3.47;;;;;;;;;;5052279;28;20932;-78
2022/06/10 02:21:00;;;;;;;3.70;3.37;;;;;;;;;;5052151;28;20466;-77
2022/06/10 02:23:30;;;;;;;5.23;3.43;;;;;;;;;;5051635;28;20527;-77
2022/06/10 02:25:58;;;;;;;3.30;3.10;;;;;;;;;;5052230;28;20446;-78
2022/06/10 02:28:28;;;;;;;4.30;3.70;;;;;;;;;;5052005;28;20936;-78
2022/06/10 02:30:58;;;;;;;3.87;3.57;;;;;;;;;;5050932;28;20976;-78
2022/06/10 02:33:26;;;;;;;5.03;3.60;;;;;;;;;;5051790;28;20556;-79
2022/06/10 02:35:57;;;;;;;4.53;3.37;;;;;;;;;;5051993;28;20481;-77
2022/06/10 02:38:28;;;;;;;3.97;3.33;;;;;;;;;;5052396;28;20528;-79
2022/06/10 02:41:00;;;;;;;3.33;3.10;;;;;;;;;;5051659;28;20527;-78
2022/06/10 02:43:31;;;;;;;4.27;3.87;;;;;;;;;;5051742;28;20430;-78
2022/06/10 02:46:02;;;;;;;5.17;3.43;;;;;;;;;;5057584;28;20454;-77
2022/06/10 02:48:34;;;;;;;4.40;3.80;;;;;;;;;;5067869;28;20450;-78
2022/06/10 02:51:01;;;;;;;4.63;3.73;;;;;;;;;;5065433;28;20484;-77
2022/06/10 02:53:29;;;;;;;3.87;3.20;;;;;;;;;;5055828;28;20442;-79
2022/06/10 02:55:56;;;;;;;3.93;3.60;;;;;;;;;;5052601;28;20547;-79
2022/06/10 03:01:16;;;;;;;3.90;3.60;;;;;;;;;;5017509;28;20535;-76
2022/06/10 03:03:54;;;;;;;5.20;3.67;;;;;;;;;;5050882;28;20449;-78
2022/06/10 03:06:25;;;;;;;4.20;3.80;;;;;;;;;;5051484;28;20850;-78
2022/06/10 03:08:55;;;;;;;3.87;3.47;;;;;;;;;;5051142;28;20465;-77
2022/06/10 03:11:27;;;;;;;4.30;3.90;;;;;;;;;;5051182;28;20953;-79
2022/06/10 03:14:01;;;;;;;7.30;3.70;;;;;;;;;;5050697;28;20450;-78
2022/06/10 03:16:35;;;;;;;4.30;3.90;;;;;;;;;;5051203;28;20563;-78
2022/06/10 03:19:08;;;;;;;3.97;3.53;;;;;;;;;;5051402;28;20499;-78
2022/06/10 03:21:43;;;;;;;6.13;3.60;;;;;;;;;;5051144;28;20450;-78
2022/06/10 03:24:13;;;;;;;5.70;3.90;;;;;;;;;;5050759;28;20490;-78
2022/06/10 03:26:42;;;;;;;5.03;4.23;;;;;;;;;;5050396;28;20781;-78
2022/06/10 03:29:12;;;;;;;8.60;4.20;;;;;;;;;;5050791;28;20534;-78
2022/06/10 03:31:41;;;;;;;4.57;4.17;;;;;;;;;;5050356;28;20957;-77
2022/06/10 03:34:13;;;;;;;4.63;3.93;;;;;;;;;;5050671;28;20442;-77
2022/06/10 03:36:41;;;;;;;6.37;4.20;;;;;;;;;;5050458;28;20488;-78
2022/06/10 03:39:09;;;;;;;4.10;3.70;;;;;;;;;;5050301;28;20547;-79
2022/06/10 03:41:38;;;;;;;4.23;3.83;;;;;;;;;;5050527;28;20822;-78
2022/06/10 03:44:13;;;;;;;5.03;4.27;;;;;;;;;;5050820;28;20520;-79
2022/06/10 03:46:40;;;;;;;7.30;3.87;;;;;;;;;;5050509;28;20466;-78
2022/06/10 03:49:11;;;;;;;6.23;4.23;;;;;;;;;;5050810;28;20539;-78
2022/06/10 03:51:39;;;;;;;4.10;3.70;;;;;;;;;;5050379;28;20511;-78
2022/06/10 03:54:06;;;;;;;4.80;4.40;;;;;;;;;;5050114;28;20446;-78
2022/06/10 03:56:35;;;;;;;6.03;4.60;;;;;;;;;;5050676;28;20490;-78
2022/06/10 03:59:02;;;;;;;5.30;4.70;;;;;;;;;;5050236;28;20541;-79
2022/06/10 04:01:29;;;;;;;5.23;3.97;;;;;;;;;;5052079;28;20456;-78
2022/06/10 04:03:56;;;;;;;4.70;4.33;;;;;;;;;;5049557;28;20461;-79
2022/06/10 04:06:25;;;;;;;4.73;4.33;;;;;;;;;;5051041;28;20845;-77
2022/06/10 04:08:52;;;;;;;5.37;3.93;;;;;;;;;;5048543;28;20450;-78
2022/06/10 04:11:19;;;;;;;5.00;4.40;;;;;;;;;;5050233;28;20791;-78
2022/06/10 04:13:46;;;;;;;4.30;4.00;;;;;;;;;;5049569;28;20461;-77
2022/06/10 04:16:13;;;;;;;4.83;4.40;;;;;;;;;;5047541;28;20469;-80
2022/06/10 04:18:40;;;;;;;4.83;4.43;;;;;;;;;;5050269;28;20449;-77
2022/06/10 04:21:08;;;;;;;5.53;5.03;;;;;;;;;;5050519;28;20469;-78
2022/06/10 04:23:36;;;;;;;5.53;5.03;;;;;;;;;;5051112;28;20441;-78
2022/06/10 04:26:03;;;;;;;4.73;4.33;;;;;;;;;;5050426;28;20441;-78
2022/06/10 04:28:30;;;;;;;4.70;4.20;;;;;;;;;;5044631;28;20457;-78
2022/06/10 04:30:57;;;;;;;6.43;4.60;;;;;;;;;;5045881;28;20523;-77
2022/06/10 04:33:24;;;;;;;4.93;4.33;;;;;;;;;;5050471;28;20496;-78
2022/06/10 04:35:52;;;;;;;5.90;4.70;;;;;;;;;;5050357;28;20481;-78
2022/06/10 04:38:20;;;;;;;6.30;4.57;;;;;;;;;;5050746;28;20864;-77
2022/06/10 04:40:49;;;;;;;4.50;4.10;;;;;;;;;;5049978;28;20820;-77
2022/06/10 04:43:16;;;;;;;8.33;4.67;;;;;;;;;;5050147;28;20533;-79
2022/06/10 04:45:45;;;;;;;8.03;4.63;;;;;;;;;;5050297;28;20504;-77
2022/06/10 04:48:12;;;;;;;4.60;4.30;;;;;;;;;;5049917;28;20460;-78
2022/06/10 04:50:40;;;;;;;5.13;4.63;;;;;;;;;;5049662;28;20461;-78
2022/06/10 04:53:07;;;;;;;5.50;4.47;;;;;;;;;;5050700;28;20588;-78
2022/06/10 04:55:34;;;;;;;6.10;4.57;;;;;;;;;;5053879;28;20503;-78
2022/06/10 04:58:05;;;;;;;6.13;4.27;;;;;;;;;;5053925;28;20451;-78
2022/06/10 05:00:34;;;;;;;5.10;4.70;;;;;;;;;;5053702;28;21201;-79
2022/06/10 05:03:02;;;;;;;4.67;4.27;;;;;;;;;;5055468;28;20437;-78
2022/06/10 05:05:29;;;;;;;6.13;4.27;;;;;;;;;;5057931;28;20866;-77
2022/06/10 05:07:56;;;;;;;9.57;4.87;;;;;;;;;;5058417;28;20445;-77
2022/06/10 05:10:23;;;;;;;5.53;4.50;;;;;;;;;;5058318;28;20523;-79
2022/06/10 05:12:50;;;;;;;4.77;4.37;;;;;;;;;;5059477;28;20444;-77
2022/06/10 05:15:20;;;;;;;5.27;4.17;;;;;;;;;;5064715;28;20484;-77
2022/06/10 05:17:48;;;;;;;6.17;4.40;;;;;;;;;;5066558;28;20445;-77
2022/06/10 05:20:17;;;;;;;5.17;4.33;;;;;;;;;;5066637;28;20457;-77
2022/06/10 05:22:44;;;;;;;4.90;4.40;;;;;;;;;;5065783;28;20473;-77
2022/06/10 05:25:11;;;;;;;7.23;5.00;;;;;;;;;;5056487;28;20441;-78
2022/06/10 05:27:38;;;;;;;8.10;4.67;;;;;;;;;;5053141;28;20437;-78
2022/06/10 05:30:06;;;;;;;6.40;5.10;;;;;;;;;;5053156;28;20496;-77
2022/06/10 05:32:34;;;;;;;5.03;4.63;;;;;;;;;;5053146;28;20449;-78
2022/06/10 05:35:01;;;;;;;7.57;4.90;;;;;;;;;;5058896;28;20518;-77
2022/06/10 05:37:29;;;;;;;6.90;4.40;;;;;;;;;;5060168;28;20481;-77
2022/06/10 05:39:56;;;;;;;5.10;4.40;;;;;;;;;;5054156;28;20466;-78
2022/06/10 05:42:24;;;;;;;4.80;4.30;;;;;;;;;;5053243;28;20450;-78
2022/06/10 05:44:52;;;;;;;5.07;4.67;;;;;;;;;;5052554;28;20457;-77
2022/06/10 05:47:20;;;;;;;4.80;4.43;;;;;;;;;;5052726;28;20449;-77
2022/06/10 05:49:50;;;;;;;5.73;4.40;;;;;;;;;;5053000;28;20462;-77
2022/06/10 05:52:18;;;;;;;8.17;4.60;;;;;;;;;;5053020;28;20449;-77
2022/06/10 05:54:46;;;;;;;5.70;4.70;;;;;;;;;;5053091;28;20438;-77
2022/06/10 05:57:14;;;;;;;8.60;4.13;;;;;;;;;;5052897;28;20482;-78
2022/06/10 05:59:41;;;;;;;4.70;4.20;;;;;;;;;;5052614;28;21014;-77
2022/06/10 06:02:09;;;;;;;4.17;3.83;;;;;;;;;;5052712;28;20442;-77
2022/06/10 06:04:37;;;;;;;5.43;4.30;;;;;;;;;;5051355;28;20460;-77
2022/06/10 06:07:06;;;;;;;4.90;4.23;;;;;;;;;;5052570;28;20446;-77
2022/06/10 06:09:33;;;;;;;5.43;4.93;;;;;;;;;;5053120;28;20553;-77
2022/06/10 06:12:01;;;;;;;5.33;4.57;;;;;;;;;;5052362;28;20499;-77
2022/06/10 06:14:29;;;;;;;4.50;4.07;;;;;;;;;;5051874;28;20468;-78
2022/06/10 06:16:57;;;;;;;5.13;4.60;;;;;;;;;;5053090;28;20992;-78
2022/06/10 06:19:24;;;;;;;5.10;4.60;;;;;;;;;;5052761;28;20487;-79
2022/06/10 06:21:51;;;;;;;6.20;4.37;;;;;;;;;;5051879;28;20448;-77
2022/06/10 06:24:20;;;;;;;5.57;4.57;;;;;;;;;;5051954;28;20952;-78
2022/06/10 06:26:47;;;;;;;5.03;4.63;;;;;;;;;;5052068;28;20492;-78
2022/06/10 06:29:14;;;;;;;4.33;3.93;;;;;;;;;;5051898;28;20462;-77
2022/06/10 06:31:41;;;;;;;5.20;4.70;;;;;;;;;;5051974;28;20445;-77
2022/06/10 06:34:08;;;;;;;7.07;4.53;;;;;;;;;;5051962;28;20956;-78
2022/06/10 06:36:38;;;;;;;7.67;4.57;;;;;;;;;;5053021;28;20485;-77
2022/06/10 06:39:06;;;;;;;4.90;4.40;;;;;;;;;;5051558;28;20850;-77
2022/06/10 06:41:34;;;;;;;6.50;3.70;;;;;;;;;;5051909;28;20975;-77
2022/06/10 06:44:04;;;;;;;9.73;4.07;;;;;;;;;;5051162;28;20500;-77
2022/06/10 06:46:32;;;;;;;5.77;4.20;;;;;;;;;;5051832;28;20488;-77
2022/06/10 06:48:59;;;;;;;6.87;4.57;;;;;;;;;;5051689;28;20453;-78
2022/06/10 06:51:26;;;;;;;4.10;3.60;;;;;;;;;;5051693;28;20492;-78
2022/06/10 06:53:53;;;;;;;6.80;3.90;;;;;;;;;;5051461;28;20804;-77
2022/06/10 06:56:20;;;;;;;4.60;3.80;;;;;;;;;;5051517;28;20534;-78
2022/06/10 06:58:48;;;;;;;3.90;3.60;;;;;;;;;;5051667;28;20446;-77
2022/06/10 07:01:15;;;;;;;5.20;3.40;;;;;;;;;;5051190;28;20475;-77
2022/06/10 07:03:42;;;;;;;4.40;4.00;;;;;;;;;;5051236;28;20787;-78
2022/06/10 07:06:10;;;;;;;7.37;4.53;;;;;;;;;;5051328;28;20441;-78
2022/06/10 07:08:37;;;;;;;5.33;3.83;;;;;;;;;;5051332;28;20445;-77
2022/06/10 07:11:05;;;;;;;6.90;3.83;;;;;;;;;;5051627;28;20469;-77
2022/06/10 07:13:32;;;;;;;6.20;3.77;;;;;;;;;;5050965;28;20494;-77
2022/06/10 07:16:01;;;;;;;5.10;3.57;;;;;;;;;;5051138;28;20453;-77
2022/06/10 07:18:28;;;;;;;6.10;3.47;;;;;;;;;;5052335;28;20533;-79
2022/06/10 07:20:55;;;;;;;4.53;3.17;;;;;;;;;;5051139;28;20540;-77
2022/06/10 07:23:22;;;;;;;6.07;3.70;;;;;;;;;;5050663;28;20503;-78
2022/06/10 07:25:50;;;;;;;6.63;3.53;;;;;;;;;;5050696;28;20449;-77
2022/06/10 07:28:17;;;;;;;4.90;4.07;;;;;;;;;;5050781;28;20449;-78
2022/06/10 07:30:44;;;;;;;6.80;3.77;;;;;;;;;;5050855;28;20809;-77
2022/06/10 07:33:13;;;;;;;4.30;3.10;;;;;;;;;;5050478;28;20499;-78
2022/06/10 07:35:40;;;;;;;7.80;3.40;;;;;;;;;;5051347;28;20499;-78
2022/06/10 07:38:08;;;;;;;4.73;3.73;;;;;;;;;;5050768;28;20481;-78
2022/06/10 07:43:21;;;;;;;4.17;2.97;;;;;;;;;;5050862;28;20500;-77
2022/06/10 07:45:48;;;;;;;5.40;3.60;;;;;;;;;;5056302;28;20476;-77
2022/06/10 07:48:16;;;;;;;4.17;3.73;;;;;;;;;;5051844;28;20453;-78
2022/06/10 07:50:45;;;;;;;5.70;3.40;;;;;;;;;;5053840;28;20480;-80
2022/06/10 07:53:12;;;;;;;5.53;3.47;;;;;;;;;;5051718;28;20446;-77
2022/06/10 07:55:40;;;;;;;4.87;3.47;;;;;;;;;;5059275;28;20445;-77
2022/06/10 07:58:07;;;;;;;7.73;3.57;;;;;;;;;;5059516;28;20481;-77
2022/06/10 08:00:35;;;;;;;6.47;4.00;;;;;;;;;;5050509;28;20465;-77
2022/06/10 08:03:02;;;;;;;6.87;3.70;;;;;;;;;;5049647;28;20451;-79
2022/06/10 08:05:30;;;;;;;3.80;3.33;;;;;;;;;;5050255;28;20499;-78
2022/06/10 08:07:57;;;;;;;3.80;3.23;;;;;;;;;;5050520;28;20446;-77
2022/06/10 08:10:26;;;;;;;4.73;3.07;;;;;;;;;;5050389;28;20544;-77
2022/06/10 08:12:53;;;;;;;3.77;3.20;;;;;;;;;;5051326;28;20472;-79
2022/06/10 08:15:22;;;;;;;4.50;2.97;;;;;;;;;;5050754;28;20449;-77
2022/06/10 08:17:50;;;;;;;4.87;3.07;;;;;;;;;;5050318;28;20492;-78
2022/06/10 08:20:19;;;;;;;6.90;3.40;;;;;;;;;;5051823;28;20544;-78
2022/06/10 08:22:47;;;;;;;3.00;2.70;;;;;;;;;;5054940;28;20441;-78
2022/06/10 08:25:14;;;;;;;6.03;3.70;;;;;;;;;;5055052;28;20487;-78
2022/06/10 08:27:41;;;;;;;7.30;3.53;;;;;;;;;;5053425;28;20445;-78
2022/06/10 08:30:10;;;;;;;9.23;3.37;;;;;;;;;;5055199;28;20468;-78
2022/06/10 08:32:37;;;;;;;7.60;4.10;;;;;;;;;;5055633;28;20441;-78
2022/06/10 08:35:06;;;;;;;4.27;3.00;;;;;;;;;;5055328;28;20494;-78
2022/06/10 08:37:33;;;;;;;4.17;3.77;;;;;;;;;;5056217;28;20900;-78
2022/06/10 08:40:01;;;;;;;4.20;2.87;;;;;;;;;;5055072;28;21038;-77
2022/06/10 08:42:33;;;;;;;5.37;2.70;;;;;;;;;;5057031;28;20437;-78
2022/06/10 08:45:03;;;;;;;7.93;3.50;;;;;;;;;;5054477;28;21026;-77
2022/06/10 08:47:34;;;;;;;6.50;3.10;;;;;;;;;;5054021;28;20461;-78
2022/06/10 08:50:20;;;;;;;3.20;2.60;;;;;;;;;;5054885;28;20849;-77
2022/06/10 08:52:54;;;;;;;5.73;2.77;;;;;;;;;;5057021;28;20445;-77
2022/06/10 08:55:34;;;;;;;3.10;2.80;;;;;;;;;;5057427;28;20433;-76
2022/06/10 08:58:03;;;;;;;3.37;2.40;;;;;;;;;;5061300;28;20492;-77
2022/06/10 09:00:32;;;;;;;3.40;2.63;;;;;;;;;;5062273;28;20465;-78
2022/06/10 09:03:01;;;;;;;4.80;2.60;;;;;;;;;;5062156;28;20440;-77
2022/06/10 09:05:31;;;;;;;6.17;2.93;;;;;;;;;;5060977;28;20499;-78
2022/06/10 09:08:00;;;;;;;5.70;3.40;;;;;;;;;;5060629;28;20955;-78
2022/06/10 09:10:31;;;;;;;5.93;2.70;;;;;;;;;;5057861;28;20514;-78
2022/06/10 09:13:06;;;;;;;4.17;2.50;;;;;;;;;;5059782;28;20457;-76
2022/06/10 09:15:35;;;;;;;4.37;2.80;;;;;;;;;;5061359;28;20476;-77
2022/06/10 09:18:06;;;;;;;7.57;2.83;;;;;;;;;;5058797;28;20473;-77
2022/06/10 09:20:35;;;;;;;3.10;2.20;;;;;;;;;;5060169;28;20466;-76
2022/06/10 09:23:06;;;;;;;6.33;2.93;;;;;;;;;;5056854;28;20594;-77
2022/06/10 09:25:38;;;;;;;4.10;2.37;;;;;;;;;;5053597;28;20444;-77
2022/06/10 09:28:05;;;;;;;6.30;2.67;;;;;;;;;;5054499;28;20445;-77
2022/06/10 09:30:35;;;;;;;5.77;2.97;;;;;;;;;;5053605;28;20453;-77
2022/06/10 09:33:06;;;;;;;5.33;2.60;;;;;;;;;;5053171;28;20599;-76
2022/06/10 09:35:37;;;;;;;4.27;2.30;;;;;;;;;;5053534;28;20450;-77
2022/06/10 09:38:08;;;;;;;3.63;1.90;;;;;;;;;;5053521;28;21000;-78
2022/06/10 09:40:37;;;;;;;4.77;2.43;;;;;;;;;;5055032;28;21058;-77
2022/06/10 09:43:15;;;;;;;4.87;2.80;;;;;;;;;;5053595;28;20449;-79
2022/06/10 09:45:47;;;;;;;2.77;1.70;;;;;;;;;;5053259;28;20456;-77
2022/06/10 09:48:22;;;;;;;5.17;2.90;;;;;;;;;;5055312;28;20499;-79
2022/06/10 09:50:53;;;;;;;3.43;2.47;;;;;;;;;;5054948;28;20469;-78
2022/06/10 09:53:35;;;;;;;3.77;1.80;;;;;;;;;;5053593;28;20833;-77
2022/06/10 09:56:18;;;;;;;5.80;1.80;;;;;;;;;;5055374;28;20449;-77
2022/06/10 09:58:53;;;;;;;5.73;2.67;;;;;;;;;;5057859;28;20481;-78
2022/06/10 10:01:29;;;;;;;5.07;2.30;;;;;;;;;;5062969;28;20449;-78
2022/06/10 10:04:11;;;;;;;6.37;2.07;;;;;;;;;;5065425;28;20457;-78
2022/06/10 10:06:41;;;;;;;3.10;1.90;;;;;;;;;;5057605;28;20445;-79
2022/06/10 10:09:14;;;;;;;5.20;1.97;;;;;;;;;;5055849;28;20507;-78
2022/06/10 10:11:44;;;;;;;2.83;1.80;;;;;;;;;;5055883;28;20472;-79
2022/06/10 10:14:15;;;;;;;3.37;2.10;;;;;;;;;;5057781;28;21140;-77
2022/06/10 10:16:47;;;;;;;3.33;1.90;;;;;;;;;;5053193;28;20441;-79
2022/06/10 10:19:21;;;;;;;4.83;2.33;;;;;;;;;;5053719;28;20481;-78
2022/06/10 10:21:53;;;;;;;3.80;2.40;;;;;;;;;;5053395;28;20503;-78
2022/06/10 10:24:21;;;;;;;2.10;1.80;;;;;;;;;;5052975;28;20491;-78
2022/06/10 10:26:51;;;;;;;6.23;2.67;;;;;;;;;;5054222;28;20532;-79
2022/06/10 10:29:20;;;;;;;2.87;2.30;;;;;;;;;;5053392;28;20462;-78
2022/06/10 10:31:49;;;;;;;3.10;2.17;;;;;;;;;;5052282;28;20449;-78
2022/06/10 10:34:18;;;;;;;3.30;2.40;;;;;;;;;;5053014;28;20441;-79
2022/06/10 10:36:50;;;;;;;3.40;1.77;;;;;;;;;;5053280;28;20468;-77
2022/06/10 10:39:18;;;;;;;7.00;1.90;;;;;;;;;;5052518;28;20492;-78
2022/06/10 10:41:47;;;;;;;3.37;2.23;;;;;;;;;;5052844;28;20503;-77
2022/06/10 10:44:28;;;;;;;5.33;2.50;;;;;;;;;;5051790;28;20455;-79
2022/06/10 10:47:00;;;;;;;5.10;2.20;;;;;;;;;;5054786;28;20449;-79
2022/06/10 10:49:29;;;;;;;2.47;2.07;;;;;;;;;;5053804;28;20984;-78
2022/06/10 10:51:56;;;;;;;4.60;2.43;;;;;;;;;;5053581;28;20968;-78
2022/06/10 10:54:26;;;;;;;3.43;2.57;;;;;;;;;;5056526;28;20465;-78
2022/06/10 10:56:54;;;;;;;2.43;1.83;;;;;;;;;;5059017;28;20448;-78
2022/06/10 10:59:31;;;;;;;3.50;2.03;;;;;;;;;;5062827;28;20508;-77
2022/06/10 11:01:59;;;;;;;4.40;1.83;;;;;;;;;;5056956;28;20519;-78
2022/06/10 11:04:27;;;;;;;2.03;1.90;;;;;;;;;;5054103;28;20449;-78
2022/06/10 11:07:00;;;;;;;2.63;2.27;;;;;;;;;;5053641;28;20829;-77
2022/06/10 11:09:27;;;;;;;4.27;2.40;;;;;;;;;;5051268;28;20519;-78
2022/06/10 11:11:55;;;;;;;4.10;2.13;;;;;;;;;;5052731;28;20961;-78
2022/06/10 11:14:23;;;;;;;4.20;1.87;;;;;;;;;;5051815;28;20820;-78
2022/06/10 11:17:05;;;;;;;4.90;2.10;;;;;;;;;;5051620;28;20495;-78
2022/06/10 11:19:51;;;;;;;3.33;2.13;;;;;;;;;;5048959;28;20687;-77
2022/06/10 11:22:20;;;;;;;4.13;2.50;;;;;;;;;;5052490;28;20484;-77
2022/06/10 11:24:50;;;;;;;6.17;2.70;;;;;;;;;;5051881;28;20871;-78
2022/06/10 11:27:31;;;;;;;3.10;1.97;;;;;;;;;;5051634;28;20450;-78
2022/06/10 11:30:00;;;;;;;2.53;1.63;;;;;;;;;;5052187;28;20535;-77
2022/06/10 11:32:29;;;;;;;4.80;2.13;;;;;;;;;;5051777;28;20449;-78
2022/06/10 11:35:00;;;;;;;4.07;2.40;;;;;;;;;;5044888;28;20553;-78
2022/06/10 11:37:29;;;;;;;2.80;1.93;;;;;;;;;;5038792;28;20802;-78
2022/06/10 11:39:59;;;;;;;2.83;1.60;;;;;;;;;;5050409;28;20470;-78
2022/06/10 11:42:28;;;;;;;3.73;1.60;;;;;;;;;;5053247;28;20434;-79
2022/06/10 11:44:58;;;;;;;4.80;2.20;;;;;;;;;;5052039;28;20495;-78
2022/06/10 11:47:29;;;;;;;2.40;1.90;;;;;;;;;;5051932;28;20487;-78
2022/06/10 11:49:59;;;;;;;3.37;2.00;;;;;;;;;;5031334;28;20458;-78
2022/06/10 11:52:29;;;;;;;4.07;1.60;;;;;;;;;;5030899;28;20521;-80
2022/06/10 11:55:03;;;;;;;4.43;2.50;;;;;;;;;;5030740;28;20829;-77
2022/06/10 12:00:20;;;;;;;2.07;1.80;;;;;;;;;;5029935;28;20437;-78
2022/06/10 12:02:49;;;;;;;2.23;1.90;;;;;;;;;;5033911;28;20439;-80
2022/06/10 12:05:22;;;;;;;4.13;2.30;;;;;;;;;;5033005;28;20504;-79
2022/06/10 12:07:51;;;;;;;3.23;2.47;;;;;;;;;;5031833;28;20510;-80
2022/06/10 12:10:21;;;;;;;3.00;1.90;;;;;;;;;;5031594;28;20581;-79
2022/06/10 12:12:49;;;;;;;5.70;2.37;;;;;;;;;;5030838;28;20457;-78
2022/06/10 12:15:22;;;;;;;2.70;2.30;;;;;;;;;;5030910;28;20537;-78
2022/06/10 12:17:50;;;;;;;4.73;2.40;;;;;;;;;;5031142;28;20473;-78
2022/06/10 12:20:20;;;;;;;4.00;2.50;;;;;;;;;;5030714;28;20474;-78
2022/06/10 12:22:48;;;;;;;2.93;2.23;;;;;;;;;;5030929;28;20521;-78
2022/06/10 12:25:17;;;;;;;3.43;2.00;;;;;;;;;;5031299;28;20446;-80
2022/06/10 12:27:46;;;;;;;2.30;2.10;;;;;;;;;;5030938;28;20508;-78
2022/06/10 12:30:15;;;;;;;4.10;2.20;;;;;;;;;;5031428;28;21064;-79
2022/06/10 12:32:45;;;;;;;4.47;2.20;;;;;;;;;;5029973;28;20545;-79
2022/06/10 12:35:16;;;;;;;6.40;2.17;;;;;;;;;;5030959;28;20442;-79
2022/06/10 12:37:46;;;;;;;2.57;1.73;;;;;;;;;;5031719;28;20427;-79
2022/06/10 12:40:18;;;;;;;5.70;2.17;;;;;;;;;;5030029;28;20474;-79
2022/06/10 12:42:47;;;;;;;2.67;2.27;;;;;;;;;;5030138;28;20434;-78
2022/06/10 12:45:18;;;;;;;4.10;2.13;;;;;;;;;;5029868;28;20970;-78
2022/06/10 12:47:45;;;;;;;4.27;2.30;;;;;;;;;;5029743;28;20846;-78
2022/06/10 12:50:18;;;;;;;6.03;2.37;;;;;;;;;;5029997;28;20478;-77
2022/06/10 12:52:53;;;;;;;2.13;1.93;;;;;;;;;;5029670;28;20476;-78
2022/06/10 12:55:27;;;;;;;2.33;1.80;;;;;;;;;;5029766;28;20519;-78
2022/06/10 12:57:55;;;;;;;5.70;1.70;;;;;;;;;;5030017;28;20431;-78
2022/06/10 13:00:36;;;;;;;2.33;1.70;;;;;;;;;;5029899;28;20560;-78
2022/06/10 13:03:24;;;;;;;4.97;1.97;;;;;;;;;;5036985;28;20864;-78
2022/06/10 13:05:51;;;;;;;2.00;1.80;;;;;;;;;;5050722;28;20444;-77
2022/06/10 13:08:44;;;;;;;3.80;2.30;;;;;;;;;;5050172;28;20523;-78
2022/06/10 13:11:12;;;;;;;2.90;2.00;;;;;;;;;;5031386;28;21083;-78
2022/06/10 13:13:40;;;;;;;2.40;1.73;;;;;;;;;;5049558;28;20453;-78
2022/06/10 13:16:40;;;;;;;5.33;1.87;;;;;;;;;;5053388;28;21157;-79
2022/06/10 13:19:20;;;;;;;5.80;2.87;;;;;;;;;;4983388;28;20496;-77
2022/06/10 13:21:47;;;;;;;2.10;1.90;;;;;;;;;;4972678;28;20496;-78
2022/06/10 13:24:15;;;;;;;2.80;2.30;;;;;;;;;;5015370;28;20449;-79
2022/06/10 13:26:44;;;;;;;3.87;2.43;;;;;;;;;;5053751;28;20883;-78
2022/06/10 13:29:13;;;;;;;3.47;2.00;;;;;;;;;;5055796;28;20469;-78
2022/06/10 13:31:47;;;;;;;4.07;2.10;;;;;;;;;;5054948;28;21228;-78
2022/06/10 13:34:19;;;;;;;2.57;1.83;;;;;;;;;;5058273;28;20518;-78
2022/06/10 13:36:51;;;;;;;2.50;1.90;;;;;;;;;;5059465;28;20467;-78
2022/06/10 13:39:24;;;;;;;3.00;2.07;;;;;;;;;;5054666;28;20477;-77
2022/06/10 13:41:53;;;;;;;5.13;1.90;;;;;;;;;;5055088;28;20449;-77
2022/06/10 13:44:24;;;;;;;5.23;1.80;;;;;;;;;;5054983;28;20461;-76
2022/06/10 13:46:51;;;;;;;2.90;1.87;;;;;;;;;;5059562;28;20540;-76
2022/06/10 13:49:42;;;;;;;3.13;1.93;;;;;;;;;;5061931;28;20552;-76
2022/06/10 13:52:16;;;;;;;4.70;1.70;;;;;;;;;;5062582;28;20446;-77
2022/06/10 13:54:43;;;;;;;1.60;1.40;;;;;;;;;;5062911;28;20544;-77
2022/06/10 13:57:19;;;;;;;2.60;1.47;;;;;;;;;;5060318;28;20511;-78
2022/06/10 13:59:46;;;;;;;5.90;1.77;;;;;;;;;;5055581;28;20481;-77
2022/06/10 14:02:16;;;;;;;2.60;1.67;;;;;;;;;;5055369;28;20460;-77
2022/06/10 14:04:44;;;;;;;2.10;1.60;;;;;;;;;;5045087;28;20455;-79
2022/06/10 14:07:15;;;;;;;3.03;1.67;;;;;;;;;;5054306;28;20511;-77
2022/06/10 14:09:46;;;;;;;4.10;1.60;;;;;;;;;;5054617;28;20458;-77
2022/06/10 14:12:19;;;;;;;2.87;1.70;;;;;;;;;;5054424;28;20422;-77
2022/06/10 14:14:48;;;;;;;2.40;1.57;;;;;;;;;;5053737;28;20462;-76
2022/06/10 14:17:17;;;;;;;1.90;1.43;;;;;;;;;;5054424;28;20448;-76
2022/06/10 14:19:46;;;;;;;2.97;1.80;;;;;;;;;;5054314;28;20481;-76
2022/06/10 14:22:18;;;;;;;1.87;1.30;;;;;;;;;;5059507;28;20462;-78
2022/06/10 14:24:45;;;;;;;2.80;1.50;;;;;;;;;;5061162;28;20450;-79
2022/06/10 14:27:19;;;;;;;2.17;1.70;;;;;;;;;;5056119;28;20453;-78
2022/06/10 14:29:49;;;;;;;2.97;1.70;;;;;;;;;;5054496;28;20472;-80
2022/06/10 14:32:20;;;;;;;2.20;1.33;;;;;;;;;;5054314;28;20442;-77
2022/06/10 14:34:49;;;;;;;1.90;1.70;;;;;;;;;;5053346;28;20430;-78
2022/06/10 14:37:33;;;;;;;1.40;1.30;;;;;;;;;;5054049;28;20448;-77
2022/06/10 14:40:05;;;;;;;2.30;1.50;;;;;;;;;;5052748;28;20961;-77
2022/06/10 14:42:33;;;;;;;2.03;1.50;;;;;;;;;;5053300;28;20453;-76
2022/06/10 14:45:02;;;;;;;1.57;1.20;;;;;;;;;;5054663;28;20503;-77
2022/06/10 14:47:30;;;;;;;3.67;1.50;;;;;;;;;;5053510;28;20450;-78
2022/06/10 14:49:59;;;;;;;2.47;2.07;;;;;;;;;;5055046;28;20454;-78
2022/06/10 14:52:28;;;;;;;2.70;1.57;;;;;;;;;;5055156;28;20541;-79
2022/06/10 14:54:56;;;;;;;1.63;1.20;;;;;;;;;;5054129;28;20452;-76
2022/06/10 14:57:24;;;;;;;2.53;1.70;;;;;;;;;;5055484;28;20449;-78
2022/06/10 14:59:52;;;;;;;2.37;1.50;;;;;;;;;;5054676;28;20891;-77
2022/06/10 15:02:21;;;;;;;1.43;1.00;;;;;;;;;;5054200;28;20442;-78
2022/06/10 15:07:44;;;;;;;1.73;1.60;;;;;;;;;;4992477;28;20519;-78
2022/06/10 15:10:13;;;;;;;1.37;1.00;;;;;;;;;;5039941;28;20976;-78